createdAt,value
2019-05-02T00:04:55.914Z,18.80
2019-05-02T00:09:55.333Z,18.27
2019-05-02T00:15:02.133Z,19.13
2019-05-02T00:20:00.616Z,20.63
2019-05-02T00:25:02.441Z,18.83
2019-05-02T00:30:04.861Z,18.60
2019-05-02T00:35:06.591Z,22.47
2019-05-02T00:40:08.533Z,17.03
2019-05-02T00:45:10.249Z,17.90
2019-05-02T00:50:12.683Z,21.47
2019-05-02T00:55:14.477Z,22.47
2019-05-02T01:00:18.336Z,21.37
2019-05-02T01:05:19.969Z,22.90
2019-05-02T01:10:22.544Z,22.47
2019-05-02T01:15:24.411Z,19.90
2019-05-02T01:20:27.727Z,19.80
2019-05-02T01:25:29.737Z,23.70
2019-05-02T01:30:48.558Z,22.33
2019-05-02T01:35:57.018Z,23.07
2019-05-02T01:40:58.826Z,21.23
2019-05-02T01:46:00.537Z,19.67
2019-05-02T01:51:04.479Z,19.00
2019-05-02T01:56:05.791Z,17.50
2019-05-02T02:01:07.582Z,18.93
2019-05-02T02:06:10.165Z,21.50
2019-05-02T02:11:12.044Z,20.13
2019-05-02T02:16:13.770Z,23.33
2019-05-02T02:21:44.260Z,24.93
2019-05-02T02:26:48.256Z,26.87
2019-05-02T02:31:49.467Z,25.97
2019-05-02T02:36:51.174Z,24.63
2019-05-02T02:41:54.201Z,31.50
2019-05-02T02:46:56.105Z,25.87
2019-05-02T02:52:04.270Z,26.20
2019-05-02T02:57:01.406Z,30.30
2019-05-02T03:02:10.085Z,30.67
2019-05-02T03:07:06.738Z,31.47
2019-05-02T03:12:26.529Z,31.80
2019-05-02T03:17:28.874Z,28.47
2019-05-02T03:22:34.992Z,33.87
2019-05-02T03:27:37.529Z,30.60
2019-05-02T03:32:37.965Z,34.33
2019-05-02T03:37:44.981Z,38.00
2019-05-02T03:42:44.640Z,34.10
2019-05-02T03:47:46.760Z,35.57
2019-05-02T03:52:48.499Z,30.47
2019-05-02T03:57:50.325Z,29.37
2019-05-02T04:02:59.074Z,32.20
2019-05-02T04:07:55.690Z,32.27
2019-05-02T04:12:58.784Z,27.63
2019-05-02T04:18:01.091Z,23.70
2019-05-02T04:23:02.960Z,27.30
2019-05-02T04:28:05.781Z,26.07
2019-05-02T04:33:08.461Z,24.43
2019-05-02T04:38:20.336Z,28.43
2019-05-02T04:43:13.666Z,29.10
2019-05-02T04:48:18.220Z,27.20
2019-05-02T04:53:19.072Z,27.53
2019-05-02T04:58:27.551Z,22.90
2019-05-02T05:03:24.286Z,25.87
2019-05-02T05:08:31.255Z,20.50
2019-05-02T05:13:29.558Z,19.30
2019-05-02T05:18:31.253Z,26.13
2019-05-02T05:23:51.739Z,23.33
2019-05-02T05:28:54.257Z,23.63
2019-05-02T05:33:57.918Z,26.60
2019-05-02T05:39:03.008Z,18.90
2019-05-02T05:44:03.319Z,22.67
2019-05-02T05:49:05.102Z,19.30
2019-05-02T05:54:07.753Z,23.47
2019-05-02T05:59:09.693Z,23.00
2019-05-02T06:04:13.849Z,16.57
2019-05-02T06:09:14.985Z,22.67
2019-05-02T06:14:19.950Z,20.37
2019-05-02T06:19:20.293Z,20.63
2019-05-02T06:24:21.999Z,18.83
2019-05-02T06:29:23.825Z,20.10
2019-05-02T06:34:25.606Z,19.03
2019-05-02T06:39:31.989Z,20.70
2019-05-02T06:44:30.898Z,17.77
2019-05-02T06:49:32.672Z,18.20
2019-05-02T06:54:34.372Z,18.20
2019-05-02T06:59:36.135Z,13.87
2019-05-02T07:04:37.834Z,19.23
2019-05-02T07:09:41.228Z,20.17
2019-05-02T07:14:45.725Z,14.67
2019-05-02T07:19:49.339Z,12.77
2019-05-02T07:24:51.029Z,10.53
2019-05-02T07:29:57.684Z,12.90
2019-05-02T07:34:56.329Z,10.37
2019-05-02T07:39:58.114Z,11.00
2019-05-02T07:45:04.327Z,12.43
2019-05-02T07:50:05.375Z,10.83
2019-05-02T07:55:09.941Z,13.07
2019-05-02T08:00:11.180Z,10.23
2019-05-02T08:05:15.529Z,16.60
2019-05-02T08:10:21.851Z,14.03
2019-05-02T08:15:20.390Z,14.10
2019-05-02T08:20:22.156Z,14.20
2019-05-02T08:25:23.934Z,17.67
2019-05-02T08:30:28.944Z,18.13
2019-05-02T08:35:30.670Z,14.77
2019-05-02T08:40:32.440Z,11.90
2019-05-02T08:45:38.129Z,13.93
2019-05-02T08:50:37.838Z,12.07
2019-05-02T08:55:41.345Z,11.70
2019-05-02T09:00:43.224Z,12.37
2019-05-02T09:05:45.996Z,14.93
2019-05-02T09:10:48.436Z,11.47
2019-05-02T09:15:54.117Z,25.23
2019-05-02T09:20:56.715Z,16.37
2019-05-02T09:25:58.652Z,18.17
2019-05-02T09:31:02.871Z,13.73
2019-05-02T09:36:04.208Z,15.27
2019-05-02T09:41:16.108Z,16.50
2019-05-02T09:46:12.795Z,11.93
2019-05-02T09:51:17.223Z,12.13
2019-05-02T09:56:16.599Z,11.63
2019-05-02T10:01:27.220Z,12.80
2019-05-02T10:06:31.373Z,14.33
2019-05-02T10:11:32.519Z,20.77
2019-05-02T10:16:34.265Z,14.80
2019-05-02T10:21:35.974Z,13.80
2019-05-02T10:26:37.711Z,15.83
2019-05-02T10:31:39.490Z,17.33
2019-05-02T10:36:45.143Z,11.53
2019-05-02T10:41:44.866Z,8.97
2019-05-02T10:46:55.722Z,13.13
2019-05-02T10:51:57.429Z,15.30
2019-05-02T10:56:59.236Z,16.00
2019-05-02T11:02:18.914Z,14.53
2019-05-02T11:07:22.676Z,11.90
2019-05-02T11:12:44.143Z,11.60
2019-05-02T11:17:42.231Z,12.20
2019-05-02T11:22:43.917Z,6.17
2019-05-02T11:27:45.718Z,14.47
2019-05-02T11:32:47.430Z,19.50
2019-05-02T11:37:49.192Z,10.43
2019-05-02T11:42:52.155Z,13.87
2019-05-02T11:47:55.995Z,13.23
2019-05-02T11:52:57.478Z,11.83
2019-05-02T11:58:02.459Z,10.97
2019-05-02T12:03:17.342Z,11.07
2019-05-02T12:08:19.084Z,14.70
2019-05-02T12:13:22.555Z,13.03
2019-05-02T12:18:24.394Z,12.87
2019-05-02T12:23:26.094Z,7.47
2019-05-02T12:28:28.056Z,8.73
2019-05-02T12:33:33.937Z,13.20
2019-05-02T12:38:35.706Z,9.43
2019-05-02T12:43:37.411Z,11.13
2019-05-02T12:48:39.150Z,13.00
2019-05-02T12:53:41.800Z,12.20
2019-05-02T12:58:43.605Z,12.13
2019-05-02T13:03:57.538Z,5.60
2019-05-02T13:08:59.341Z,12.67
2019-05-02T13:14:02.178Z,10.63
2019-05-02T13:19:06.202Z,16.57
2019-05-02T13:24:18.327Z,13.83
2019-05-02T13:29:20.018Z,15.53
2019-05-02T13:34:35.561Z,17.93
2019-05-02T13:39:42.351Z,11.40
2019-05-02T13:44:52.688Z,9.17
2019-05-02T13:49:58.070Z,11.77
2019-05-02T13:54:58.279Z,12.77
2019-05-02T14:00:02.157Z,12.17
2019-05-02T14:05:04.262Z,18.07
2019-05-02T14:10:18.858Z,13.97
2019-05-02T14:15:22.294Z,13.23
2019-05-02T14:20:24.006Z,11.87
2019-05-02T14:25:25.794Z,11.50
2019-05-02T14:30:37.322Z,14.13
2019-05-02T14:35:36.261Z,13.07
2019-05-02T14:40:42.549Z,13.50
2019-05-02T14:45:44.270Z,12.60
2019-05-02T14:50:45.976Z,9.60
2019-05-02T14:55:49.426Z,10.80
2019-05-02T15:00:52.954Z,14.50
2019-05-02T15:05:58.899Z,13.67
2019-05-02T15:10:58.246Z,12.87
2019-05-02T15:16:02.349Z,13.53
2019-05-02T15:21:11.407Z,14.97
2019-05-02T15:26:07.078Z,11.47
2019-05-02T15:31:13.294Z,13.13
2019-05-02T15:36:26.416Z,12.57
2019-05-02T15:41:28.132Z,13.47
2019-05-02T15:46:31.756Z,11.40
2019-05-02T15:51:33.362Z,6.43
2019-05-02T15:56:52.266Z,10.37
2019-05-02T16:01:55.918Z,10.97
2019-05-02T16:07:00.411Z,12.73
2019-05-02T16:12:02.940Z,13.57
2019-05-02T16:17:04.717Z,13.03
2019-05-02T16:22:12.954Z,8.50
2019-05-02T16:27:16.617Z,11.20
2019-05-02T16:32:37.797Z,16.03
2019-05-02T16:37:39.542Z,8.80
2019-05-02T16:42:41.956Z,12.80
2019-05-02T16:47:43.848Z,8.63
2019-05-02T16:52:47.316Z,7.93
2019-05-02T16:57:49.102Z,5.67
2019-05-02T17:02:50.871Z,5.00
2019-05-02T17:08:22.573Z,7.50
2019-05-02T17:13:27.422Z,8.60
2019-05-02T17:18:27.955Z,9.00
2019-05-02T17:23:29.654Z,7.13
2019-05-02T17:28:31.814Z,10.10
2019-05-02T17:33:33.602Z,4.70
2019-05-02T17:38:35.370Z,8.50
2019-05-02T17:43:37.443Z,5.77
2019-05-02T17:48:42.774Z,6.67
2019-05-02T17:53:49.509Z,7.13
2019-05-02T17:58:54.248Z,6.40
2019-05-02T18:03:52.070Z,6.93
2019-05-02T18:08:55.394Z,8.27
2019-05-02T18:13:57.246Z,9.73
2019-05-02T18:18:59.001Z,7.83
2019-05-02T18:24:04.440Z,11.00
2019-05-02T18:29:06.907Z,8.70
2019-05-02T18:34:12.518Z,7.37
2019-05-02T18:39:12.978Z,7.17
2019-05-02T18:44:17.109Z,6.90
2019-05-02T18:49:21.892Z,10.10
2019-05-02T18:54:21.861Z,9.57
2019-05-02T18:59:27.004Z,10.73
2019-05-02T19:04:35.257Z,7.57
2019-05-02T19:09:33.132Z,13.27
2019-05-02T19:14:34.213Z,10.07
2019-05-02T19:19:36.905Z,9.70
2019-05-02T19:24:38.786Z,8.63
2019-05-02T19:29:42.330Z,8.87
2019-05-02T19:34:44.059Z,9.77
2019-05-02T19:39:48.809Z,10.33
2019-05-02T19:44:49.397Z,13.77
2019-05-02T19:49:52.398Z,11.57
2019-05-02T19:54:54.653Z,10.07
2019-05-02T19:59:57.204Z,10.23
2019-05-02T20:04:59.842Z,9.90
2019-05-02T20:10:01.927Z,13.00
2019-05-02T20:15:04.041Z,10.33
2019-05-02T20:20:09.729Z,16.80
2019-05-02T20:25:12.524Z,26.23
2019-05-02T20:30:14.481Z,19.40
2019-05-02T20:35:16.170Z,24.70
2019-05-02T20:40:25.012Z,18.10
2019-05-02T20:45:26.874Z,25.37
2019-05-02T20:50:28.650Z,14.27
2019-05-02T20:55:32.157Z,11.87
2019-05-02T21:00:34.054Z,12.57
2019-05-02T21:05:52.090Z,14.00
2019-05-02T21:10:54.564Z,14.93
2019-05-02T21:15:56.277Z,11.73
2019-05-02T21:20:57.970Z,13.40
2019-05-02T21:26:01.757Z,10.27
2019-05-02T21:31:03.237Z,13.50
2019-05-02T21:36:05.438Z,13.83
2019-05-02T21:41:08.962Z,15.23
2019-05-02T21:46:10.721Z,14.80
2019-05-02T21:51:19.594Z,14.83
2019-05-02T21:56:42.910Z,13.93
2019-05-02T22:01:47.653Z,15.53
2019-05-02T22:06:49.484Z,13.73
2019-05-02T22:11:51.989Z,21.13
2019-05-02T22:16:54.059Z,16.20
2019-05-02T22:21:55.757Z,14.60
2019-05-02T22:26:57.500Z,16.13
2019-05-02T22:31:59.217Z,15.80
2019-05-02T22:37:01.929Z,16.50
2019-05-02T22:42:04.576Z,14.80
2019-05-02T22:47:06.548Z,13.30
2019-05-02T22:52:08.254Z,14.30
2019-05-02T22:57:11.576Z,15.60
2019-05-02T23:02:15.778Z,15.53
2019-05-02T23:07:17.551Z,14.03
2019-05-02T23:12:19.244Z,12.90
2019-05-02T23:17:23.016Z,11.73
2019-05-02T23:22:24.572Z,15.73
2019-05-02T23:27:42.402Z,10.13
2019-05-02T23:32:44.099Z,18.50
2019-05-02T23:37:45.819Z,12.03
2019-05-02T23:42:47.500Z,17.67
2019-05-02T23:47:49.274Z,12.97
2019-05-02T23:52:50.980Z,9.47
2019-05-02T23:57:52.733Z,13.90
